Time;durP1;ratioP1;P1;durP2;ratioP2;P2;SDS_P1;SDS_P2;PMS_P1;PMS_P2;Temp;Humidity;BMP_temperature;BMP_pressure;BME280_temperature;BME280_humidity;BME280_pressure;Samples;Min_cycle;Max_cycle;Signal;HPM_P1;HPM_P2
2023/10/24 00:00:38;;;;;;;;;9.00;9.00;;;;;12.26;89.31;99746.31;5083328;27;45333;-85
2023/10/24 00:03:04;;;;;;;;;5.67;5.67;;;;;12.45;89.24;99777.75;5085428;27;45628;-84
2023/10/24 00:05:29;;;;;;;;;8.33;8.33;;;;;12.25;89.22;99746.44;5081292;28;45918;-86
2023/10/24 00:07:55;;;;;;;;;10.00;9.00;;;;;12.00;89.57;99702.16;5080538;27;45289;-86
2023/10/24 00:10:21;;;;;;;;;14.00;9.00;;;;;12.40;89.58;99791.44;5078904;28;45461;-85
2023/10/24 00:12:46;;;;;;;;;8.67;8.67;;;;;12.48;89.92;99795.31;5079957;27;45493;-84
2023/10/24 00:15:12;;;;;;;;;12.00;7.33;;;;;12.26;89.29;99733.00;5079705;28;46478;-86
2023/10/24 00:17:37;;;;;;;;;12.33;9.67;;;;;12.64;89.23;99787.88;5079795;27;45293;-86
2023/10/24 00:20:03;;;;;;;;;11.00;10.00;;;;;12.22;89.49;99706.66;5080427;27;45347;-86
2023/10/24 00:22:29;;;;;;;;;10.67;10.00;;;;;12.59;89.60;99776.69;5080018;27;45414;-84
2023/10/24 00:24:54;;;;;;;;;11.00;11.00;;;;;12.50;89.45;99764.03;5079410;27;45536;-86
2023/10/24 00:27:19;;;;;;;;;12.33;10.33;;;;;12.61;89.76;99782.75;5079556;28;45338;-84
2023/10/24 00:29:45;;;;;;;;;14.00;13.00;;;;;12.52;89.51;99768.31;5079306;28;49966;-83
2023/10/24 00:32:11;;;;;;;;;9.33;9.33;;;;;12.60;89.83;99775.72;5079885;27;45172;-85
2023/10/24 00:34:37;;;;;;;;;6.33;6.33;;;;;12.54;90.18;99779.72;5080258;27;45464;-84
2023/10/24 00:37:02;;;;;;;;;12.00;12.00;;;;;12.35;89.94;99745.59;5080072;28;45375;-86
2023/10/24 00:39:28;;;;;;;;;10.67;10.67;;;;;12.67;89.98;99792.97;5078622;28;45361;-86
2023/10/24 00:41:53;;;;;;;;;18.67;13.67;;;;;12.64;90.05;99803.88;5084274;28;45605;-84
2023/10/24 00:44:18;;;;;;;;;13.00;10.67;;;;;12.52;90.38;99778.16;5082262;28;48485;-88
2023/10/24 00:46:43;;;;;;;;;12.00;10.33;;;;;12.29;90.64;99748.75;5082075;28;45334;-85
2023/10/24 00:49:10;;;;;;;;;14.67;13.00;;;;;12.26;90.17;99735.66;5082053;28;45303;-87
2023/10/24 00:51:36;;;;;;;;;12.00;10.67;;;;;12.29;90.32;99759.41;5082372;27;45443;-85
2023/10/24 00:54:02;;;;;;;;;12.00;12.00;;;;;12.52;90.97;99783.47;5078855;28;47960;-86
2023/10/24 00:56:29;;;;;;;;;16.00;13.00;;;;;12.18;90.65;99747.88;5077136;28;45365;-85
2023/10/24 00:58:56;;;;;;;;;12.67;11.67;;;;;12.20;91.71;99749.44;5077624;28;45326;-87
2023/10/24 01:01:22;;;;;;;;;14.00;12.00;;;;;12.47;91.89;99793.63;5079106;28;45463;-86
2023/10/24 01:03:48;;;;;;;;;13.75;12.50;;;;;12.35;91.69;99774.06;5077272;28;47887;-86
2023/10/24 01:06:15;;;;;;;;;16.00;13.00;;;;;12.32;92.08;99751.19;5078897;27;45463;-85
2023/10/24 01:08:41;;;;;;;;;13.50;12.00;;;;;12.38;92.23;99758.72;5078922;27;45442;-86
2023/10/24 01:11:07;;;;;;;;;19.00;13.00;;;;;12.30;92.56;99737.13;5079399;28;45474;-85
2023/10/24 01:13:32;;;;;;;;;13.25;13.25;;;;;12.30;92.63;99742.44;5077541;28;47457;-84
2023/10/24 01:15:58;;;;;;;;;13.25;13.00;;;;;12.28;92.86;99738.22;5079100;27;45252;-86
2023/10/24 01:18:24;;;;;;;;;13.50;13.50;;;;;12.37;92.80;99748.19;5079594;27;45324;-85
2023/10/24 01:20:49;;;;;;;;;16.25;16.25;;;;;12.35;92.78;99750.94;5078262;28;45355;-86
2023/10/24 01:23:15;;;;;;;;;15.75;14.00;;;;;12.57;92.97;99782.13;5078031;28;47335;-86
2023/10/24 01:25:41;;;;;;;;;17.50;17.50;;;;;12.35;92.70;99740.25;5079359;28;45358;-87
2023/10/24 01:28:07;;;;;;;;;14.67;13.00;;;;;12.57;92.25;99765.28;5080640;27;45445;-86
2023/10/24 01:30:35;;;;;;;;;17.67;14.67;;;;;12.11;92.10;99683.53;5080111;27;45537;-86
2023/10/24 01:33:00;;;;;;;;;16.00;14.33;;;;;12.66;92.41;99778.78;5078689;27;45644;-86
2023/10/24 01:35:26;;;;;;;;;19.67;18.00;;;;;12.54;92.06;99770.88;5078262;27;45346;-85
2023/10/24 01:37:51;;;;;;;;;17.00;12.00;;;;;12.56;92.45;99782.25;5077043;28;45383;-87
2023/10/24 01:40:16;;;;;;;;;16.00;13.00;;;;;12.48;92.39;99755.31;5082671;27;45386;-85
2023/10/24 01:42:42;;;;;;;;;15.33;13.33;;;;;12.60;92.58;99775.72;5085230;27;45361;-84
2023/10/24 01:45:07;;;;;;;;;21.67;13.67;;;;;12.17;92.83;99725.69;5081610;27;45361;-85
2023/10/24 01:47:33;;;;;;;;;14.67;14.67;;;;;12.33;93.60;99757.34;5078144;28;45276;-85
2023/10/24 01:49:58;;;;;;;;;14.00;12.75;;;;;12.11;93.48;99710.19;5083107;27;45647;-86
2023/10/24 01:52:23;;;;;;;;;19.50;14.75;;;;;12.28;94.03;99739.06;5085988;28;46904;-87
2023/10/24 01:54:49;;;;;;;;;12.75;12.75;;;;;11.93;94.19;99674.25;5086366;28;55451;-86
2023/10/24 01:57:15;;;;;;;;;17.00;15.50;;;;;12.42;94.56;99766.47;5082402;28;45213;-84
2023/10/24 01:59:40;;;;;;;;;16.50;16.50;;;;;12.21;94.79;99732.47;5080452;28;45169;-86
2023/10/24 02:02:05;;;;;;;;;14.25;11.75;;;;;12.34;94.44;99754.56;5079022;27;46505;-85
2023/10/24 02:04:31;;;;;;;;;18.33;14.00;;;;;12.20;94.98;99741.44;5079958;28;45671;-85
2023/10/24 02:06:56;;;;;;;;;21.00;16.33;;;;;12.39;95.20;99762.22;5076590;28;45804;-85
2023/10/24 02:09:21;;;;;;;;;17.00;14.75;;;;;12.29;95.23;99735.41;5079178;27;45428;-85
2023/10/24 02:11:47;;;;;;;;;19.75;15.00;;;;;12.44;94.88;99754.72;5077847;27;49280;-86
2023/10/24 02:14:12;;;;;;;;;15.25;13.00;;;;;12.17;94.98;99706.19;5076040;28;45450;-86
2023/10/24 02:16:38;;;;;;;;;9.25;9.25;;;;;12.50;94.78;99758.72;5078097;28;45432;-86
2023/10/24 02:19:03;;;;;;;;;14.50;14.00;;;;;12.08;94.39;99670.41;5078262;27;45609;-86
2023/10/24 02:21:28;;;;;;;;;20.00;17.00;;;;;12.00;94.34;99648.84;5077640;28;46369;-86
2023/10/24 02:23:54;;;;;;;;;14.67;13.67;;;;;12.64;94.42;99761.19;5077411;28;55733;-86
2023/10/24 02:26:19;;;;;;;;;17.25;13.50;;;;;12.65;94.00;99752.22;5077115;28;58438;-85
2023/10/24 02:28:44;;;;;;;;;15.33;12.00;;;;;12.44;93.85;99711.19;5077928;27;45551;-87
2023/10/24 02:31:10;;;;;;;;;22.75;17.00;;;;;12.49;94.02;99723.19;5078292;27;45385;-87
2023/10/24 02:33:36;;;;;;;;;20.00;20.00;;;;;12.16;94.18;99677.84;5077533;27;45397;-85
2023/10/24 02:36:09;;;;;;;;;17.75;14.75;;;;;12.72;94.36;99756.09;5076369;28;45488;-84
2023/10/24 02:38:34;;;;;;;;;15.67;14.67;;;;;12.69;93.87;99737.66;5076452;28;45445;-86
2023/10/24 02:40:59;;;;;;;;;19.75;19.00;;;;;12.71;93.96;99735.72;5077423;27;45529;-86
2023/10/24 02:43:25;;;;;;;;;22.00;16.00;;;;;12.51;93.88;99696.44;5077504;27;45394;-85
2023/10/24 02:45:50;;;;;;;;;17.33;17.33;;;;;12.76;93.86;99733.56;5076626;28;63278;-85
2023/10/24 02:48:15;;;;;;;;;18.33;14.33;;;;;12.31;94.01;99669.50;5075952;28;46412;-86
2023/10/24 02:50:44;;;;;;;;;21.75;15.75;;;;;12.45;93.60;99686.22;5075968;28;56668;-86
2023/10/24 02:53:09;;;;;;;;;17.00;15.00;;;;;12.80;93.98;99753.69;5077531;27;45243;-86
2023/10/24 02:55:35;;;;;;;;;17.67;15.33;;;;;12.45;94.00;99686.22;5077560;27;45257;-86
2023/10/24 02:58:00;;;;;;;;;17.67;13.67;;;;;12.82;94.43;99749.06;5077679;27;45243;-87
2023/10/24 03:00:26;;;;;;;;;16.00;12.67;;;;;12.29;93.81;99650.09;5077273;27;45376;-86
2023/10/24 03:02:52;;;;;;;;;16.67;15.00;;;;;12.75;93.58;99717.63;5076858;27;45342;-86
2023/10/24 03:05:17;;;;;;;;;18.00;14.00;;;;;12.74;94.11;99715.94;5077278;27;45310;-86
2023/10/24 03:07:43;;;;;;;;;18.00;13.33;;;;;12.56;94.29;99688.91;5077693;27;45844;-85
2023/10/24 03:10:08;;;;;;;;;14.00;13.33;;;;;12.86;94.26;99734.50;5076516;28;63384;-87
2023/10/24 03:12:34;;;;;;;;;14.00;14.00;;;;;12.76;94.61;99720.22;5077959;27;45260;-85
2023/10/24 03:14:59;;;;;;;;;20.00;15.00;;;;;12.89;94.18;99720.94;5077864;27;45840;-86
2023/10/24 03:17:26;;;;;;;;;13.67;12.67;;;;;12.72;94.53;99697.41;5078194;27;45540;-85
2023/10/24 03:19:52;;;;;;;;;13.00;11.67;;;;;12.92;94.00;99722.50;5083683;28;45447;-85
2023/10/24 03:22:18;;;;;;;;;7.33;7.33;;;;;12.97;94.09;99734.50;5084053;27;45278;-84
2023/10/24 03:24:43;;;;;;;;;11.00;10.00;;;;;12.92;93.99;99718.03;5084644;27;45321;-85
2023/10/24 03:27:12;;;;;;;;;15.67;12.00;;;;;12.83;94.37;99710.75;5084718;27;45637;-86
2023/10/24 03:29:40;;;;;;;;;15.00;14.33;;;;;13.01;94.39;99732.44;5084073;28;46165;-86
2023/10/24 03:32:06;;;;;;;;;12.00;12.00;;;;;12.97;94.23;99728.31;5084131;27;45373;-85
2023/10/24 03:34:31;;;;;;;;;11.67;11.67;;;;;12.78;94.37;99694.25;5084725;27;45466;-86
2023/10/24 03:36:56;;;;;;;;;11.00;11.00;;;;;13.02;94.40;99738.63;5084337;28;45312;-87
2023/10/24 03:39:22;;;;;;;;;14.00;12.33;;;;;13.02;94.47;99738.63;5090486;27;45456;-85
2023/10/24 03:41:48;;;;;;;;;13.00;11.33;;;;;12.71;94.65;99687.69;5094793;27;45239;-84
2023/10/24 03:44:13;;;;;;;;;8.67;8.67;;;;;12.94;95.00;99729.41;5094520;27;45247;-85
2023/10/24 03:46:38;;;;;;;;;11.00;11.00;;;;;12.89;95.14;99718.28;5086151;28;53028;-84
2023/10/24 03:49:04;;;;;;;;;12.67;11.67;;;;;12.83;95.46;99708.06;5084376;27;48600;-85
2023/10/24 03:51:29;;;;;;;;;12.00;12.00;;;;;12.92;95.92;99742.03;5084298;27;47732;-85
2023/10/24 03:53:54;;;;;;;;;11.00;10.33;;;;;12.86;96.09;99726.50;5090875;28;45305;-85
2023/10/24 03:56:19;;;;;;;;;10.67;10.00;;;;;12.36;95.91;99651.31;5090403;27;47056;-87
2023/10/24 03:58:45;;;;;;;;;10.67;10.00;;;;;12.64;96.37;99707.84;5101037;27;47281;-84
2023/10/24 04:01:11;;;;;;;;;9.00;9.00;;;;;12.93;96.10;99733.06;5083808;27;45342;-86
2023/10/24 04:03:37;;;;;;;;;7.00;7.00;;;;;12.87;96.28;99722.84;5099558;27;45512;-83
2023/10/24 04:06:02;;;;;;;;;6.00;6.00;;;;;12.76;96.31;99706.00;5084341;27;45431;-87
2023/10/24 04:08:27;;;;;;;;;9.33;9.33;;;;;12.65;96.76;99685.53;5091621;27;45369;-85
2023/10/24 04:10:53;;;;;;;;;8.67;8.33;;;;;12.97;96.29;99731.00;5088713;28;44877;-85
2023/10/24 04:13:18;;;;;;;;;8.67;8.67;;;;;12.73;95.78;99700.91;5083865;28;45439;-84
2023/10/24 04:15:43;;;;;;;;;11.00;11.00;;;;;12.72;96.19;99693.88;5083515;28;45535;-85
2023/10/24 04:18:10;;;;;;;;;11.00;10.00;;;;;12.98;96.06;99736.19;5082956;28;46328;-87
2023/10/24 04:20:40;;;;;;;;;9.33;7.67;;;;;12.94;96.27;99721.41;5081329;28;46086;-86
2023/10/24 04:23:12;;;;;;;;;8.33;8.33;;;;;12.60;95.93;99671.69;5083026;27;45338;-86
2023/10/24 04:25:37;;;;;;;;;8.00;6.00;;;;;12.72;95.85;99692.06;5083386;27;45368;-86
2023/10/24 04:28:03;;;;;;;;;8.67;8.67;;;;;12.79;96.08;99705.78;5082803;28;45536;-87
2023/10/24 04:30:28;;;;;;;;;7.00;7.00;;;;;12.83;95.80;99709.91;5079891;27;45346;-86
2023/10/24 04:32:54;;;;;;;;;6.33;6.33;;;;;12.88;96.02;99716.53;5079896;27;45227;-85
2023/10/24 04:35:19;;;;;;;;;7.67;7.00;;;;;12.57;96.38;99679.94;5080174;27;45326;-86
2023/10/24 04:37:47;;;;;;;;;11.00;10.67;;;;;12.77;96.31;99713.91;5079761;28;46412;-85
2023/10/24 04:40:13;;;;;;;;;8.33;6.67;;;;;12.92;96.53;99728.69;5079208;27;45519;-84
2023/10/24 04:42:38;;;;;;;;;6.33;6.33;;;;;12.92;96.86;99733.19;5079261;28;45389;-86
2023/10/24 04:45:04;;;;;;;;;6.00;6.00;;;;;12.91;96.48;99727.00;5078021;28;45363;-86
2023/10/24 04:47:29;;;;;;;;;5.67;5.67;;;;;12.73;96.64;99703.56;5079061;27;45488;-85
2023/10/24 04:49:55;;;;;;;;;6.67;6.67;;;;;12.57;97.17;99695.94;5079317;27;45290;-85
2023/10/24 04:52:20;;;;;;;;;7.00;7.00;;;;;12.80;97.46;99734.16;5079562;27;45428;-86
2023/10/24 04:54:46;;;;;;;;;6.00;6.00;;;;;12.72;97.15;99708.06;5080133;28;45318;-83
2023/10/24 04:57:11;;;;;;;;;7.00;5.67;;;;;12.63;96.63;99682.09;5079136;27;46379;-83
2023/10/24 04:59:37;;;;;;;;;3.67;3.67;;;;;12.82;97.37;99710.88;5078341;27;45352;-84
2023/10/24 05:02:03;;;;;;;;;5.00;5.00;;;;;12.68;96.79;99679.94;5088366;27;45322;-85
2023/10/24 05:04:29;;;;;;;;;5.67;5.67;;;;;12.88;96.83;99723.72;5088225;27;45309;-87
2023/10/24 05:06:54;;;;;;;;;7.00;4.00;;;;;12.89;96.93;99730.75;5078867;28;46168;-85
2023/10/24 05:09:20;;;;;;;;;9.67;6.00;;;;;12.88;97.13;99719.22;5079973;27;45258;-86
2023/10/24 05:11:45;;;;;;;;;5.00;5.00;;;;;12.95;96.64;99727.59;5079028;27;45259;-85
2023/10/24 05:14:11;;;;;;;;;6.00;5.67;;;;;12.52;96.80;99656.31;5079261;27;45631;-85
2023/10/24 05:16:36;;;;;;;;;5.00;4.00;;;;;12.64;96.40;99670.50;5078173;27;45420;-86
2023/10/24 05:19:01;;;;;;;;;5.00;5.00;;;;;12.97;97.36;99731.00;5078336;27;45443;-84
2023/10/24 05:21:27;;;;;;;;;6.33;6.00;;;;;12.97;96.55;99726.50;5078630;28;45184;-86
2023/10/24 05:23:52;;;;;;;;;3.33;3.33;;;;;12.79;96.54;99687.94;5079075;27;45618;-86
2023/10/24 05:26:17;;;;;;;;;4.00;4.00;;;;;12.84;96.70;99700.91;5078692;27;45792;-85
2023/10/24 05:28:43;;;;;;;;;4.00;3.00;;;;;12.89;96.89;99715.59;5093970;27;45754;-85
2023/10/24 05:31:08;;;;;;;;;4.33;4.33;;;;;12.58;96.81;99660.28;5078940;27;45339;-86
2023/10/24 05:33:35;;;;;;;;;7.00;5.00;;;;;12.66;97.32;99685.41;5079213;27;45469;-86
2023/10/24 05:36:00;;;;;;;;;4.00;4.00;;;;;12.66;97.40;99684.56;5079056;28;47151;-87
2023/10/24 05:38:26;;;;;;;;;3.67;3.67;;;;;12.87;97.26;99719.34;5078233;27;45433;-84
2023/10/24 05:40:51;;;;;;;;;4.67;4.67;;;;;12.52;97.60;99666.13;5078523;27;45359;-86
2023/10/24 05:43:17;;;;;;;;;4.67;2.67;;;;;12.76;97.40;99700.66;5081655;28;45329;-85
2023/10/24 05:45:42;;;;;;;;;5.00;5.00;;;;;12.75;97.27;99689.13;5080542;27;45390;-86
2023/10/24 05:48:07;;;;;;;;;5.33;5.33;;;;;12.72;96.83;99684.06;5076360;28;57497;-85
2023/10/24 05:50:34;;;;;;;;;3.33;3.33;;;;;12.87;97.50;99704.19;5079679;27;45345;-86
2023/10/24 05:52:59;;;;;;;;;5.33;5.33;;;;;12.84;97.23;99696.44;5096712;27;45645;-85
2023/10/24 05:55:25;;;;;;;;;6.00;6.00;;;;;12.60;97.03;99669.03;5077087;27;64515;-85
2023/10/24 05:57:50;;;;;;;;;5.67;5.67;;;;;12.76;96.84;99695.31;5078474;27;45272;-85
2023/10/24 06:00:15;;;;;;;;;5.67;5.00;;;;;12.80;96.31;99692.31;5078207;27;45415;-85
2023/10/24 06:02:41;;;;;;;;;6.00;5.00;;;;;12.55;96.50;99649.88;5079461;27;45241;-85
2023/10/24 06:05:06;;;;;;;;;7.00;7.00;;;;;12.93;96.10;99709.03;5082223;27;45163;-86
2023/10/24 06:07:32;;;;;;;;;4.67;4.67;;;;;12.73;95.95;99668.91;5088053;28;45227;-86
2023/10/24 06:09:57;;;;;;;;;7.67;5.00;;;;;13.01;95.68;99727.09;5101650;27;45467;-86
2023/10/24 06:12:23;;;;;;;;;6.00;6.00;;;;;12.97;95.31;99715.81;5082909;28;45345;-84
2023/10/24 06:14:48;;;;;;;;;6.67;5.00;;;;;12.57;96.01;99647.94;5079144;27;45366;-83
2023/10/24 06:17:17;;;;;;;;;4.00;4.00;;;;;12.86;95.04;99697.16;5081223;27;45313;-85
2023/10/24 06:19:46;;;;;;;;;5.67;5.67;;;;;12.88;95.00;99705.03;5081344;27;45290;-84
2023/10/24 06:22:12;;;;;;;;;4.00;4.00;;;;;13.16;95.16;99741.06;5078457;27;45642;-86
2023/10/24 06:24:37;;;;;;;;;6.67;6.00;;;;;13.17;94.70;99753.44;5081420;27;46027;-84
2023/10/24 06:27:03;;;;;;;;;6.00;6.00;;;;;13.12;94.92;99734.25;5086536;27;45425;-84
2023/10/24 06:29:31;;;;;;;;;7.00;6.00;;;;;13.15;94.58;99745.56;5080367;28;45267;-83
2023/10/24 06:31:57;;;;;;;;;6.33;5.00;;;;;13.00;94.33;99720.06;5084728;27;45381;-86
2023/10/24 06:34:23;;;;;;;;;6.00;4.67;;;;;13.20;94.35;99761.22;5101169;27;46725;-85
2023/10/24 06:36:48;;;;;;;;;7.00;7.00;;;;;13.19;93.77;99751.53;5087900;28;45219;-84
2023/10/24 06:39:14;;;;;;;;;6.33;6.00;;;;;12.97;94.06;99731.00;5085029;27;45360;-83
2023/10/24 06:41:39;;;;;;;;;9.33;7.00;;;;;13.03;93.71;99740.34;5078170;27;45289;-85
2023/10/24 06:44:05;;;;;;;;;5.00;5.00;;;;;12.59;93.70;99672.66;5076130;28;47762;-87
2023/10/24 06:46:30;;;;;;;;;7.67;6.00;;;;;12.88;93.50;99719.22;5078051;27;45377;-86
2023/10/24 06:48:55;;;;;;;;;7.67;7.67;;;;;12.90;92.99;99729.81;5078436;27;45223;-85
2023/10/24 06:51:21;;;;;;;;;8.67;8.67;;;;;13.10;92.93;99758.41;5096964;27;45616;-84
2023/10/24 06:53:47;;;;;;;;;8.33;8.33;;;;;12.97;92.51;99726.50;5079356;27;46426;-83
2023/10/24 06:56:12;;;;;;;;;10.67;7.00;;;;;12.96;92.56;99723.97;5077992;28;45486;-85
2023/10/24 06:58:37;;;;;;;;;9.67;7.00;;;;;13.11;92.66;99756.59;5078333;27;45325;-86
2023/10/24 07:01:03;;;;;;;;;7.67;6.00;;;;;12.88;92.31;99735.22;5077395;27;45355;-84
2023/10/24 07:03:29;;;;;;;;;10.00;6.00;;;;;13.14;92.31;99780.34;5078980;27;45536;-82
2023/10/24 07:05:54;;;;;;;;;10.00;8.33;;;;;13.10;91.71;99792.25;5088904;27;45496;-83
2023/10/24 07:08:22;;;;;;;;;6.00;6.00;;;;;13.08;91.96;99794.22;5086400;27;45359;-86
2023/10/24 07:10:49;;;;;;;;;9.67;9.67;;;;;12.81;92.29;99768.72;5084771;27;45429;-86
2023/10/24 07:13:15;;;;;;;;;11.67;7.33;;;;;12.54;92.09;99728.19;5102855;27;46822;-83
2023/10/24 07:15:41;;;;;;;;;7.00;7.00;;;;;12.44;92.28;99730.72;5085833;27;45226;-85
2023/10/24 07:18:06;;;;;;;;;10.00;10.00;;;;;12.85;92.44;99806.69;5102348;27;45192;-86
2023/10/24 07:20:38;;;;;;;;;11.00;6.67;;;;;12.82;92.48;99813.09;5080604;28;45567;-85
2023/10/24 07:23:04;;;;;;;;;9.33;5.00;;;;;12.79;92.16;99821.34;5079363;28;45348;-84
2023/10/24 07:25:30;;;;;;;;;6.00;6.00;;;;;12.57;92.46;99783.97;5096988;27;45787;-85
2023/10/24 07:27:57;;;;;;;;;9.33;6.33;;;;;12.65;91.83;99797.56;5084940;27;45231;-84
2023/10/24 07:30:23;;;;;;;;;5.00;5.00;;;;;12.40;92.07;99763.94;5093264;28;44931;-85
2023/10/24 07:32:49;;;;;;;;;7.67;7.67;;;;;12.63;91.81;99813.69;5108656;27;46865;-84
2023/10/24 07:35:14;;;;;;;;;4.33;4.33;;;;;12.46;91.49;99791.94;5112349;27;45417;-85
2023/10/24 07:37:39;;;;;;;;;10.00;5.00;;;;;12.67;91.33;99807.16;5097240;27;45476;-84
2023/10/24 07:40:05;;;;;;;;;5.00;5.00;;;;;12.83;90.27;99798.78;5088310;28;45449;-86
2023/10/24 07:42:31;;;;;;;;;5.00;5.00;;;;;12.57;90.06;99746.63;5081335;27;45339;-86
2023/10/24 07:44:57;;;;;;;;;5.67;5.67;;;;;13.13;89.02;99816.03;5095029;27;45452;-86
2023/10/24 07:47:22;;;;;;;;;5.67;5.00;;;;;13.04;88.66;99785.59;5079114;27;45377;-88
2023/10/24 07:49:48;;;;;;;;;4.00;4.00;;;;;13.26;87.04;99812.31;5078301;27;45227;-86
2023/10/24 07:52:13;;;;;;;;;6.00;5.00;;;;;12.83;86.11;99753.44;5076850;28;48011;-85
2023/10/24 07:54:38;;;;;;;;;5.00;4.00;;;;;13.24;86.13;99816.91;5078114;27;45160;-85
2023/10/24 07:57:04;;;;;;;;;4.00;4.00;;;;;13.34;85.29;99818.88;5078845;28;45600;-85
2023/10/24 07:59:30;;;;;;;;;4.00;4.00;;;;;13.46;85.65;99818.75;5083488;27;45326;-86
2023/10/24 08:01:55;;;;;;;;;4.33;4.00;;;;;13.39;84.31;99809.50;5080497;28;46088;-87
2023/10/24 08:04:21;;;;;;;;;1.67;1.67;;;;;13.28;83.24;99767.66;5089146;27;45271;-85
2023/10/24 08:06:46;;;;;;;;;18.33;12.33;;;;;13.50;83.80;99808.66;5092754;28;45215;-86
2023/10/24 08:09:11;;;;;;;;;4.67;4.33;;;;;13.50;82.91;99808.66;5091240;27;45219;-84
2023/10/24 08:11:37;;;;;;;;;4.00;4.00;;;;;13.62;83.42;99823.69;5094212;27;46550;-85
2023/10/24 08:14:02;;;;;;;;;5.33;4.00;;;;;13.58;82.93;99817.75;5096028;28;44601;-85
2023/10/24 08:16:27;;;;;;;;;5.00;5.00;;;;;13.48;82.52;99790.09;5098344;27;46037;-85
2023/10/24 08:18:54;;;;;;;;;3.00;3.00;;;;;13.55;81.85;99801.13;5096643;28;45428;-86
2023/10/24 08:21:20;;;;;;;;;1.00;1.00;;;;;13.79;81.22;99831.19;5098873;28;45551;-86
2023/10/24 08:23:45;;;;;;;;;3.67;3.67;;;;;13.70;80.76;99807.06;5096271;27;45415;-86
2023/10/24 08:26:10;;;;;;;;;8.67;8.00;;;;;13.80;80.09;99816.88;5090948;27;45370;-86
2023/10/24 08:28:36;;;;;;;;;4.00;2.33;;;;;13.60;80.18;99792.72;5083920;28;45355;-88
2023/10/24 08:31:01;;;;;;;;;4.33;4.33;;;;;13.82;79.39;99820.25;5083303;27;46512;-85
2023/10/24 08:33:28;;;;;;;;;4.00;4.00;;;;;13.91;79.40;99839.19;5078775;28;54296;-86
2023/10/24 08:35:53;;;;;;;;;3.00;3.00;;;;;13.90;79.37;99821.44;5080594;27;45282;-86
2023/10/24 08:38:19;;;;;;;;;2.67;2.67;;;;;13.76;78.64;99793.19;5079459;28;45389;-87
2023/10/24 08:40:45;;;;;;;;;6.67;4.00;;;;;13.81;77.75;99807.03;5087524;27;46142;-85
2023/10/24 08:43:11;;;;;;;;;3.00;3.00;;;;;14.00;78.32;99839.28;5086295;27;45168;-86
2023/10/24 08:45:37;;;;;;;;;2.33;2.33;;;;;13.78;78.33;99796.56;5080478;28;45390;-86
2023/10/24 08:48:06;;;;;;;;;1.00;1.00;;;;;13.65;77.48;99769.16;5083045;28;45573;-87
2023/10/24 08:50:32;;;;;;;;;3.00;2.00;;;;;13.78;76.67;99783.19;5081397;27;46091;-87
2023/10/24 08:52:58;;;;;;;;;2.00;2.00;;;;;13.87;76.56;99803.84;5081614;27;45303;-87
2023/10/24 08:55:25;;;;;;;;;2.67;2.67;;;;;13.94;76.90;99804.19;5082055;27;45377;-87
2023/10/24 08:57:52;;;;;;;;;1.67;1.67;;;;;14.15;75.34;99843.34;5083583;28;45474;-87
2023/10/24 09:00:18;;;;;;;;;6.00;4.33;;;;;13.96;76.05;99800.41;5084681;27;45409;-87
2023/10/24 09:02:47;;;;;;;;;4.33;2.67;;;;;14.23;75.42;99841.88;5085236;27;45335;-85
2023/10/24 09:05:28;;;;;;;;;2.00;2.00;;;;;14.15;75.73;99827.31;5064850;28;45289;-85
2023/10/24 09:07:56;;;;;;;;;3.00;2.00;;;;;13.94;75.47;99791.69;5089396;28;44950;-86
2023/10/24 09:10:22;;;;;;;;;3.67;2.67;;;;;14.28;75.03;99847.69;5090843;27;46074;-85
2023/10/24 09:12:53;;;;;;;;;5.67;4.67;;;;;14.31;75.56;99847.44;5073131;28;45319;-84
2023/10/24 09:15:18;;;;;;;;;4.67;3.00;;;;;13.85;74.39;99776.41;5087880;27;45436;-86
2023/10/24 09:17:43;;;;;;;;;1.67;1.67;;;;;14.36;74.30;99847.91;5088334;27;45530;-86
2023/10/24 09:20:09;;;;;;;;;2.00;2.00;;;;;14.41;75.06;99851.03;5104361;27;57066;-86
2023/10/24 09:22:35;;;;;;;;;4.00;1.33;;;;;14.00;74.54;99779.63;5076645;28;45473;-86
2023/10/24 09:25:04;;;;;;;;;4.67;1.00;;;;;14.38;73.99;99845.94;5098383;28;44793;-87
2023/10/24 09:27:45;;;;;;;;;1.00;1.00;;;;;13.89;73.67;99759.13;5098818;28;45367;-86
2023/10/24 09:30:12;;;;;;;;;1.00;1.00;;;;;14.53;72.18;99863.41;5096350;28;49112;-85
2023/10/24 09:32:41;;;;;;;;;2.67;1.00;;;;;14.56;72.60;99863.16;5087651;27;45294;-86
2023/10/24 09:35:08;;;;;;;;;2.00;2.00;;;;;14.48;73.04;99849.59;5105098;27;45342;-85
2023/10/24 09:37:34;;;;;;;;;11.00;5.67;;;;;14.62;73.02;99861.81;5085824;27;44896;-87
2023/10/24 09:40:03;;;;;;;;;2.00;2.00;;;;;14.14;72.11;99782.84;5101159;27;45489;-86
2023/10/24 09:42:32;;;;;;;;;2.33;2.00;;;;;14.51;72.33;99827.06;5086219;27;45257;-87
2023/10/24 09:45:18;;;;;;;;;4.00;3.00;;;;;14.73;72.49;99862.59;5085782;27;45314;-88
2023/10/24 09:47:45;;;;;;;;;1.33;1.33;;;;;14.82;71.09;99862.78;5103378;27;45491;-87
2023/10/24 09:50:14;;;;;;;;;2.33;1.67;;;;;14.96;70.36;99865.97;5088035;27;45602;-86
2023/10/24 09:52:45;;;;;;;;;2.67;2.67;;;;;14.78;69.07;99807.81;5072092;28;44834;-86
2023/10/24 09:55:13;;;;;;;;;2.33;2.00;;;;;14.99;69.19;99830.06;5087899;27;45279;-85
2023/10/24 09:57:39;;;;;;;;;3.00;3.00;;;;;15.40;68.12;99863.13;5088400;27;45481;-87
2023/10/24 10:00:11;;;;;;;;;3.33;2.67;;;;;15.55;68.14;99851.03;5084081;27;45298;-88
2023/10/24 10:02:40;;;;;;;;;1.00;1.00;;;;;15.72;66.89;99847.75;5085019;27;45432;-89
2023/10/24 10:05:06;;;;;;;;;3.00;3.00;;;;;15.85;65.99;99831.41;5088013;27;45350;-86
2023/10/24 10:07:33;;;;;;;;;3.67;3.00;;;;;16.01;65.03;99831.69;5080846;27;45317;-85
2023/10/24 10:09:59;;;;;;;;;2.33;2.33;;;;;16.23;65.12;99830.59;5087328;28;48285;-86
2023/10/24 10:12:27;;;;;;;;;2.00;2.00;;;;;16.30;63.69;99804.91;5101845;27;45381;-86
2023/10/24 10:15:18;;;;;;;;;7.00;5.33;;;;;16.61;64.30;99834.28;5089518;27;44855;-86
2023/10/24 10:18:05;;;;;;;;;2.00;2.00;;;;;16.90;62.93;99843.16;5085576;28;45540;-86
2023/10/24 10:21:13;;;;;;;;;3.67;3.33;;;;;17.18;61.92;99837.84;5084766;27;45525;-87
2023/10/24 10:23:41;;;;;;;;;1.33;1.33;;;;;17.45;60.41;99850.47;5080560;27;45391;-85
2023/10/24 10:26:24;;;;;;;;;5.33;2.00;;;;;17.67;60.15;99850.94;5077930;27;45378;-86
2023/10/24 10:29:31;;;;;;;;;2.00;2.00;;;;;17.71;59.51;99842.59;5078644;28;45299;-86
2023/10/24 10:32:09;;;;;;;;;3.67;3.00;;;;;17.68;59.19;99847.28;5020096;28;45465;-85
2023/10/24 10:34:42;;;;;;;;;4.00;2.67;;;;;17.76;58.93;99851.09;5074495;28;45443;-84
2023/10/24 10:37:10;;;;;;;;;2.00;1.00;;;;;17.75;58.41;99841.31;5089819;27;44671;-85
2023/10/24 10:39:36;;;;;;;;;3.00;2.00;;;;;18.01;57.31;99847.69;5092130;27;45331;-86
2023/10/24 10:42:01;;;;;;;;;2.33;2.00;;;;;18.30;56.96;99857.38;5088039;27;50446;-86
2023/10/24 10:44:33;;;;;;;;;3.33;3.33;;;;;18.69;56.72;99848.00;5086407;27;45446;-86
2023/10/24 10:47:01;;;;;;;;;4.00;4.00;;;;;19.10;55.23;99846.47;5079606;27;45449;-86
2023/10/24 10:49:36;;;;;;;;;5.00;3.00;;;;;19.56;53.91;99844.41;5078333;28;45345;-85
2023/10/24 10:52:04;;;;;;;;;3.33;2.00;;;;;19.73;52.50;99837.22;5078950;27;46177;-87
2023/10/24 10:55:18;;;;;;;;;5.00;4.00;;;;;19.96;52.46;99822.09;5080934;28;45210;-88
2023/10/24 10:58:16;;;;;;;;;3.33;2.00;;;;;20.46;50.46;99823.06;5057744;27;45470;-85
2023/10/24 11:00:56;;;;;;;;;4.00;2.67;;;;;20.89;49.46;99819.16;5082086;27;45531;-86
2023/10/24 11:03:36;;;;;;;;;1.00;1.00;;;;;21.19;47.42;99818.41;5079558;28;45715;-85
2023/10/24 11:06:09;;;;;;;;;1.00;1.00;;;;;21.01;47.22;99806.13;5080338;27;45235;-86
2023/10/24 11:08:35;;;;;;;;;1.00;1.00;;;;;20.45;47.48;99806.00;5078794;27;45512;-86
2023/10/24 11:11:00;;;;;;;;;3.00;1.67;;;;;19.91;48.45;99808.25;5080915;28;45457;-83
2023/10/24 11:13:37;;;;;;;;;2.00;2.00;;;;;19.55;49.18;99828.38;5083626;27;45229;-85
2023/10/24 11:16:04;;;;;;;;;1.00;1.00;;;;;19.20;49.71;99824.78;5086090;27;45239;-85
2023/10/24 11:18:33;;;;;;;;;3.00;1.00;;;;;18.98;50.46;99833.41;5094038;28;45454;-85
2023/10/24 11:20:59;;;;;;;;;2.67;2.67;;;;;18.89;50.92;99843.31;5093647;28;45521;-84
2023/10/24 11:23:26;;;;;;;;;4.00;1.00;;;;;18.85;50.44;99793.41;5094100;27;45326;-85
2023/10/24 11:25:54;;;;;;;;;3.33;3.33;;;;;19.56;50.34;99835.47;5090847;27;44703;-84